sensor_id;sensor_type;location;lat;lon;timestamp;pressure;altitude;pressure_sealevel;temperature;humidity
18850;BME280;4989;48.772;9.154;2023-09-08T00:04:47;98211.47;;;23.57;64.25
18850;BME280;4989;48.772;9.154;2023-09-08T00:09:50;98199.84;;;23.30;64.61
18850;BME280;4989;48.772;9.154;2023-09-08T00:14:53;98197.06;;;23.81;66.33
18850;BME280;4989;48.772;9.154;2023-09-08T00:19:57;98200.81;;;24.06;62.64
18850;BME280;4989;48.772;9.154;2023-09-08T00:25:00;98193.28;;;23.34;64.03
18850;BME280;4989;48.772;9.154;2023-09-08T00:30:03;98197.78;;;22.37;67.22
18850;BME280;4989;48.772;9.154;2023-09-08T00:35:11;98192.63;;;21.76;70.70
18850;BME280;4989;48.772;9.154;2023-09-08T00:40:15;98201.53;;;21.60;72.26
18850;BME280;4989;48.772;9.154;2023-09-08T00:45:18;98197.91;;;21.42;72.91
18850;BME280;4989;48.772;9.154;2023-09-08T00:50:20;98192.84;;;21.72;72.90
18850;BME280;4989;48.772;9.154;2023-09-08T00:55:24;98196.31;;;21.36;74.69
18850;BME280;4989;48.772;9.154;2023-09-08T01:00:27;98198.63;;;20.91;78.27
18850;BME280;4989;48.772;9.154;2023-09-08T01:05:30;98198.59;;;20.65;80.84
18850;BME280;4989;48.772;9.154;2023-09-08T01:10:33;98195.00;;;20.58;82.64
18850;BME280;4989;48.772;9.154;2023-09-08T01:15:35;98194.44;;;20.54;83.41
18850;BME280;4989;48.772;9.154;2023-09-08T01:26:10;98194.69;;;20.97;82.17
18850;BME280;4989;48.772;9.154;2023-09-08T01:31:13;98197.34;;;21.38;80.01
18850;BME280;4989;48.772;9.154;2023-09-08T01:36:16;98189.59;;;22.71;74.00
18850;BME280;4989;48.772;9.154;2023-09-08T01:41:18;98197.19;;;21.79;73.37
18850;BME280;4989;48.772;9.154;2023-09-08T01:46:21;98192.44;;;21.54;76.79
18850;BME280;4989;48.772;9.154;2023-09-08T01:51:24;98187.53;;;21.69;75.06
18850;BME280;4989;48.772;9.154;2023-09-08T01:56:27;98186.56;;;20.88;78.81
18850;BME280;4989;48.772;9.154;2023-09-08T02:01:31;98190.91;;;20.74;80.26
18850;BME280;4989;48.772;9.154;2023-09-08T02:06:33;98189.31;;;20.47;82.14
18850;BME280;4989;48.772;9.154;2023-09-08T02:11:36;98191.09;;;20.30;83.46
18850;BME280;4989;48.772;9.154;2023-09-08T02:16:38;98188.09;;;21.21;80.93
18850;BME280;4989;48.772;9.154;2023-09-08T02:21:42;98187.81;;;22.14;76.74
18850;BME280;4989;48.772;9.154;2023-09-08T02:26:45;98184.81;;;22.12;72.83
18850;BME280;4989;48.772;9.154;2023-09-08T02:31:48;98188.22;;;21.95;75.17
18850;BME280;4989;48.772;9.154;2023-09-08T02:36:51;98184.00;;;21.11;77.60
18850;BME280;4989;48.772;9.154;2023-09-08T02:41:58;98180.91;;;20.16;83.85
18850;BME280;4989;48.772;9.154;2023-09-08T02:47:02;98171.78;;;20.09;86.23
18850;BME280;4989;48.772;9.154;2023-09-08T02:52:06;98174.41;;;20.59;81.64
18850;BME280;4989;48.772;9.154;2023-09-08T02:57:09;98173.88;;;21.28;78.72
18850;BME280;4989;48.772;9.154;2023-09-08T03:02:11;98177.66;;;21.31;75.53
18850;BME280;4989;48.772;9.154;2023-09-08T03:07:14;98170.22;;;21.16;78.41
18850;BME280;4989;48.772;9.154;2023-09-08T03:12:18;98181.94;;;21.58;76.13
18850;BME280;4989;48.772;9.154;2023-09-08T03:17:20;98174.53;;;21.43;74.78
18850;BME280;4989;48.772;9.154;2023-09-08T03:22:23;98172.13;;;21.04;78.03
18850;BME280;4989;48.772;9.154;2023-09-08T03:27:27;98173.06;;;21.22;76.05
18850;BME280;4989;48.772;9.154;2023-09-08T03:32:30;98170.34;;;21.01;76.43
18850;BME280;4989;48.772;9.154;2023-09-08T03:37:34;98168.50;;;20.67;78.23
18850;BME280;4989;48.772;9.154;2023-09-08T03:42:37;98173.97;;;21.13;78.82
18850;BME280;4989;48.772;9.154;2023-09-08T03:47:40;98181.13;;;21.52;74.95
18850;BME280;4989;48.772;9.154;2023-09-08T03:52:42;98171.53;;;21.84;71.74
18850;BME280;4989;48.772;9.154;2023-09-08T03:57:45;98175.31;;;20.71;76.85
18850;BME280;4989;48.772;9.154;2023-09-08T04:02:48;98175.66;;;19.82;83.37
18850;BME280;4989;48.772;9.154;2023-09-08T04:07:52;98194.22;;;19.52;87.10
18850;BME280;4989;48.772;9.154;2023-09-08T04:12:54;98189.19;;;19.36;86.31
18850;BME280;4989;48.772;9.154;2023-09-08T04:17:57;98186.13;;;19.63;85.12
18850;BME280;4989;48.772;9.154;2023-09-08T04:23:00;98186.00;;;20.23;81.14
18850;BME280;4989;48.772;9.154;2023-09-08T04:28:03;98191.41;;;20.52;79.65
18850;BME280;4989;48.772;9.154;2023-09-08T04:33:07;98196.34;;;20.07;81.01
18850;BME280;4989;48.772;9.154;2023-09-08T04:38:10;98200.22;;;19.65;85.98
18850;BME280;4989;48.772;9.154;2023-09-08T04:43:13;98208.97;;;19.19;89.71
18850;BME280;4989;48.772;9.154;2023-09-08T04:48:16;98207.53;;;19.09;91.16
18850;BME280;4989;48.772;9.154;2023-09-08T04:53:19;98208.16;;;18.89;92.77
18850;BME280;4989;48.772;9.154;2023-09-08T04:58:22;98204.75;;;18.80;93.68
18850;BME280;4989;48.772;9.154;2023-09-08T05:03:25;98207.88;;;18.63;93.64
18850;BME280;4989;48.772;9.154;2023-09-08T05:08:29;98207.59;;;19.00;92.32
18850;BME280;4989;48.772;9.154;2023-09-08T05:13:32;98212.09;;;20.22;84.47
18850;BME280;4989;48.772;9.154;2023-09-08T05:18:41;98203.81;;;20.83;83.50
18850;BME280;4989;48.772;9.154;2023-09-08T05:23:44;98199.94;;;21.47;79.25
18850;BME280;4989;48.772;9.154;2023-09-08T05:28:47;98203.63;;;21.39;75.52
18850;BME280;4989;48.772;9.154;2023-09-08T05:33:50;98207.44;;;21.15;79.31
18850;BME280;4989;48.772;9.154;2023-09-08T05:38:53;98216.09;;;21.55;75.54
18850;BME280;4989;48.772;9.154;2023-09-08T05:43:55;98216.97;;;22.04;74.14
18850;BME280;4989;48.772;9.154;2023-09-08T05:48:58;98221.09;;;22.74;73.76
18850;BME280;4989;48.772;9.154;2023-09-08T05:54:01;98226.56;;;23.22;70.28
18850;BME280;4989;48.772;9.154;2023-09-08T05:59:04;98221.03;;;23.34;66.20
18850;BME280;4989;48.772;9.154;2023-09-08T06:04:06;98217.97;;;23.09;67.52
18850;BME280;4989;48.772;9.154;2023-09-08T06:09:09;98217.81;;;22.75;67.83
18850;BME280;4989;48.772;9.154;2023-09-08T06:14:15;98214.94;;;23.07;67.88
18850;BME280;4989;48.772;9.154;2023-09-08T06:19:20;98216.97;;;23.12;66.34
18850;BME280;4989;48.772;9.154;2023-09-08T06:24:23;98212.41;;;23.09;66.49
18850;BME280;4989;48.772;9.154;2023-09-08T06:29:27;98216.47;;;23.30;66.22
18850;BME280;4989;48.772;9.154;2023-09-08T06:34:30;98219.00;;;24.07;68.92
18850;BME280;4989;48.772;9.154;2023-09-08T06:39:33;98220.09;;;24.68;65.51
18850;BME280;4989;48.772;9.154;2023-09-08T06:44:37;98228.78;;;25.00;60.57
18850;BME280;4989;48.772;9.154;2023-09-08T06:49:40;98225.50;;;25.02;62.65
18850;BME280;4989;48.772;9.154;2023-09-08T06:54:44;98226.06;;;25.36;62.64
18850;BME280;4989;48.772;9.154;2023-09-08T06:59:49;98220.31;;;25.58;61.78
18850;BME280;4989;48.772;9.154;2023-09-08T07:04:52;98216.09;;;25.82;61.95
18850;BME280;4989;48.772;9.154;2023-09-08T07:09:56;98220.63;;;25.85;59.55
18850;BME280;4989;48.772;9.154;2023-09-08T07:14:59;98226.69;;;26.14;60.57
18850;BME280;4989;48.772;9.154;2023-09-08T07:20:05;98225.78;;;26.30;60.01
18850;BME280;4989;48.772;9.154;2023-09-08T07:25:08;98228.84;;;26.51;58.67
18850;BME280;4989;48.772;9.154;2023-09-08T07:30:12;98218.63;;;26.78;56.88
18850;BME280;4989;48.772;9.154;2023-09-08T07:35:16;98218.91;;;27.12;55.23
18850;BME280;4989;48.772;9.154;2023-09-08T07:40:20;98221.72;;;27.31;56.17
18850;BME280;4989;48.772;9.154;2023-09-08T07:45:24;98225.53;;;27.79;51.93
18850;BME280;4989;48.772;9.154;2023-09-08T07:50:29;98227.41;;;28.17;52.25
18850;BME280;4989;48.772;9.154;2023-09-08T07:55:32;98223.44;;;28.25;52.69
18850;BME280;4989;48.772;9.154;2023-09-08T08:00:34;98225.84;;;28.48;53.07
18850;BME280;4989;48.772;9.154;2023-09-08T08:05:37;98221.72;;;28.62;50.95
18850;BME280;4989;48.772;9.154;2023-09-08T08:10:43;98219.72;;;29.10;50.78
18850;BME280;4989;48.772;9.154;2023-09-08T08:15:46;98226.00;;;28.90;52.02
18850;BME280;4989;48.772;9.154;2023-09-08T08:20:49;98218.25;;;28.83;51.91
18850;BME280;4989;48.772;9.154;2023-09-08T08:25:52;98227.66;;;29.19;51.07
18850;BME280;4989;48.772;9.154;2023-09-08T08:30:55;98222.34;;;29.50;50.05
18850;BME280;4989;48.772;9.154;2023-09-08T08:35:59;98212.75;;;30.73;47.05
18850;BME280;4989;48.772;9.154;2023-09-08T08:41:05;98219.06;;;30.58;47.66
18850;BME280;4989;48.772;9.154;2023-09-08T08:46:07;98202.84;;;30.72;47.10
18850;BME280;4989;48.772;9.154;2023-09-08T08:51:12;98209.56;;;31.21;45.85
18850;BME280;4989;48.772;9.154;2023-09-08T08:56:16;98207.41;;;31.58;46.02
18850;BME280;4989;48.772;9.154;2023-09-08T09:01:20;98206.34;;;32.55;44.58
18850;BME280;4989;48.772;9.154;2023-09-08T09:06:24;98204.22;;;32.78;43.46
18850;BME280;4989;48.772;9.154;2023-09-08T09:11:26;98199.81;;;32.93;42.87
18850;BME280;4989;48.772;9.154;2023-09-08T09:16:29;98197.59;;;33.24;42.39
18850;BME280;4989;48.772;9.154;2023-09-08T09:21:46;98204.75;;;33.50;42.01
18850;BME280;4989;48.772;9.154;2023-09-08T09:26:52;98200.63;;;33.76;41.82
18850;BME280;4989;48.772;9.154;2023-09-08T09:32:05;98207.97;;;33.96;40.92
18850;BME280;4989;48.772;9.154;2023-09-08T09:37:10;98199.19;;;35.61;38.46
18850;BME280;4989;48.772;9.154;2023-09-08T09:42:13;98202.97;;;35.09;39.07
18850;BME280;4989;48.772;9.154;2023-09-08T09:47:19;98203.16;;;35.94;37.74
18850;BME280;4989;48.772;9.154;2023-09-08T09:52:23;98200.84;;;36.39;37.11
18850;BME280;4989;48.772;9.154;2023-09-08T09:57:29;98198.25;;;35.95;37.52
18850;BME280;4989;48.772;9.154;2023-09-08T10:02:32;98190.91;;;37.18;36.65
18850;BME280;4989;48.772;9.154;2023-09-08T10:07:36;98188.13;;;36.99;35.88
18850;BME280;4989;48.772;9.154;2023-09-08T10:12:39;98193.84;;;36.50;36.74
18850;BME280;4989;48.772;9.154;2023-09-08T10:17:45;98185.47;;;36.42;36.57
18850;BME280;4989;48.772;9.154;2023-09-08T10:23:53;98180.72;;;36.55;37.34
18850;BME280;4989;48.772;9.154;2023-09-08T10:28:23;98174.31;;;36.64;36.80
18850;BME280;4989;48.772;9.154;2023-09-08T10:33:26;98178.22;;;36.59;36.72
18850;BME280;4989;48.772;9.154;2023-09-08T10:38:33;98163.34;;;35.36;38.29
18850;BME280;4989;48.772;9.154;2023-09-08T10:43:38;98165.06;;;36.15;37.22
18850;BME280;4989;48.772;9.154;2023-09-08T10:48:42;98167.59;;;36.40;37.03
18850;BME280;4989;48.772;9.154;2023-09-08T10:53:48;98171.09;;;38.23;34.43
18850;BME280;4989;48.772;9.154;2023-09-08T10:58:54;98166.16;;;38.24;34.20
18850;BME280;4989;48.772;9.154;2023-09-08T11:03:57;98168.19;;;38.12;34.21
18850;BME280;4989;48.772;9.154;2023-09-08T11:09:07;98173.03;;;39.68;32.74
18850;BME280;4989;48.772;9.154;2023-09-08T11:14:10;98153.53;;;40.37;31.18
18850;BME280;4989;48.772;9.154;2023-09-08T11:19:13;98157.19;;;40.63;31.20
18850;BME280;4989;48.772;9.154;2023-09-08T11:24:15;98153.38;;;40.21;31.43
18850;BME280;4989;48.772;9.154;2023-09-08T11:29:20;98162.69;;;38.47;33.71
18850;BME280;4989;48.772;9.154;2023-09-08T11:34:23;98151.53;;;38.72;33.11
18850;BME280;4989;48.772;9.154;2023-09-08T11:39:26;98162.13;;;39.05;33.04
18850;BME280;4989;48.772;9.154;2023-09-08T11:44:29;98148.66;;;41.16;30.38
18850;BME280;4989;48.772;9.154;2023-09-08T11:49:39;98156.06;;;42.04;29.41
18850;BME280;4989;48.772;9.154;2023-09-08T11:54:42;98151.94;;;40.71;30.70
18850;BME280;4989;48.772;9.154;2023-09-08T12:00:06;98152.91;;;37.02;35.79
18850;BME280;4989;48.772;9.154;2023-09-08T12:05:28;98157.94;;;33.55;40.24
18850;BME280;4989;48.772;9.154;2023-09-08T12:10:37;98152.72;;;33.18;41.70
18850;BME280;4989;48.772;9.154;2023-09-08T12:15:41;98146.69;;;31.62;44.73
18850;BME280;4989;48.772;9.154;2023-09-08T12:20:45;98135.00;;;30.45;47.94
18850;BME280;4989;48.772;9.154;2023-09-08T12:25:56;98138.59;;;30.17;48.67
18850;BME280;4989;48.772;9.154;2023-09-08T12:30:59;98133.78;;;30.77;47.38
18850;BME280;4989;48.772;9.154;2023-09-08T12:36:17;98133.34;;;31.24;46.35
18850;BME280;4989;48.772;9.154;2023-09-08T12:41:20;98116.28;;;31.15;46.96
18850;BME280;4989;48.772;9.154;2023-09-08T12:46:23;98120.31;;;30.75;47.30
18850;BME280;4989;48.772;9.154;2023-09-08T12:51:26;98115.50;;;30.91;46.62
18850;BME280;4989;48.772;9.154;2023-09-08T12:56:28;98108.97;;;31.81;45.96
18850;BME280;4989;48.772;9.154;2023-09-08T13:01:30;98113.28;;;30.90;47.04
18850;BME280;4989;48.772;9.154;2023-09-08T13:06:33;98110.06;;;29.98;49.62
18850;BME280;4989;48.772;9.154;2023-09-08T13:11:37;98101.34;;;29.52;50.59
18850;BME280;4989;48.772;9.154;2023-09-08T13:16:42;98105.47;;;30.16;49.27
18850;BME280;4989;48.772;9.154;2023-09-08T13:21:47;98097.41;;;29.76;50.46
18850;BME280;4989;48.772;9.154;2023-09-08T13:26:51;98099.75;;;34.19;42.46
18850;BME280;4989;48.772;9.154;2023-09-08T13:31:54;98089.59;;;36.68;37.54
18850;BME280;4989;48.772;9.154;2023-09-08T13:36:57;98079.81;;;36.30;37.66
18850;BME280;4989;48.772;9.154;2023-09-08T13:42:02;98086.69;;;37.28;36.66
18850;BME280;4989;48.772;9.154;2023-09-08T13:47:05;98081.41;;;37.66;35.81
18850;BME280;4989;48.772;9.154;2023-09-08T13:52:09;98077.13;;;37.76;34.87
18850;BME280;4989;48.772;9.154;2023-09-08T13:57:13;98076.31;;;38.07;34.84
18850;BME280;4989;48.772;9.154;2023-09-08T14:02:16;98081.81;;;36.78;35.83
18850;BME280;4989;48.772;9.154;2023-09-08T14:07:38;98076.00;;;37.17;35.54
18850;BME280;4989;48.772;9.154;2023-09-08T14:12:47;98071.25;;;37.10;35.91
18850;BME280;4989;48.772;9.154;2023-09-08T14:17:51;98076.56;;;38.11;33.64
18850;BME280;4989;48.772;9.154;2023-09-08T14:22:53;98073.19;;;37.81;34.95
18850;BME280;4989;48.772;9.154;2023-09-08T14:27:55;98070.19;;;36.74;34.80
18850;BME280;4989;48.772;9.154;2023-09-08T14:33:01;98065.16;;;40.23;30.57
18850;BME280;4989;48.772;9.154;2023-09-08T14:38:04;98067.41;;;38.01;34.09
18850;BME280;4989;48.772;9.154;2023-09-08T14:43:06;98074.47;;;37.90;34.79
18850;BME280;4989;48.772;9.154;2023-09-08T14:48:09;98065.78;;;36.32;36.67
18850;BME280;4989;48.772;9.154;2023-09-08T14:53:12;98063.63;;;37.12;36.06
18850;BME280;4989;48.772;9.154;2023-09-08T14:58:15;98053.38;;;36.57;36.49
18850;BME280;4989;48.772;9.154;2023-09-08T15:03:18;98057.16;;;36.20;36.57
18850;BME280;4989;48.772;9.154;2023-09-08T15:08:21;98054.06;;;36.16;35.79
18850;BME280;4989;48.772;9.154;2023-09-08T15:13:24;98059.25;;;35.62;37.85
18850;BME280;4989;48.772;9.154;2023-09-08T15:18:27;98064.31;;;36.02;36.52
18850;BME280;4989;48.772;9.154;2023-09-08T15:23:30;98058.28;;;35.49;37.57
18850;BME280;4989;48.772;9.154;2023-09-08T15:28:33;98054.19;;;35.70;37.07
18850;BME280;4989;48.772;9.154;2023-09-08T15:33:37;98048.94;;;35.00;38.48
18850;BME280;4989;48.772;9.154;2023-09-08T15:38:41;98050.31;;;33.23;41.42
18850;BME280;4989;48.772;9.154;2023-09-08T15:43:47;98049.09;;;32.11;44.04
18850;BME280;4989;48.772;9.154;2023-09-08T15:48:49;98047.28;;;31.90;44.95
18850;BME280;4989;48.772;9.154;2023-09-08T15:53:52;98055.16;;;32.73;43.05
18850;BME280;4989;48.772;9.154;2023-09-08T15:58:54;98049.50;;;32.80;42.51
18850;BME280;4989;48.772;9.154;2023-09-08T16:03:56;98043.25;;;32.57;42.98
18850;BME280;4989;48.772;9.154;2023-09-08T16:08:59;98045.50;;;31.55;45.29
18850;BME280;4989;48.772;9.154;2023-09-08T16:14:01;98032.03;;;30.84;47.39
18850;BME280;4989;48.772;9.154;2023-09-08T16:19:03;98039.06;;;30.54;47.86
18850;BME280;4989;48.772;9.154;2023-09-08T16:24:06;98040.97;;;30.75;46.03
18850;BME280;4989;48.772;9.154;2023-09-08T16:29:08;98037.19;;;30.65;47.62
18850;BME280;4989;48.772;9.154;2023-09-08T16:34:10;98042.81;;;30.05;48.95
18850;BME280;4989;48.772;9.154;2023-09-08T16:39:14;98031.97;;;29.65;50.40
18850;BME280;4989;48.772;9.154;2023-09-08T16:44:16;98037.09;;;29.54;51.20
18850;BME280;4989;48.772;9.154;2023-09-08T16:49:19;98038.44;;;29.32;51.25
18850;BME280;4989;48.772;9.154;2023-09-08T16:54:21;98042.09;;;29.19;51.34
18850;BME280;4989;48.772;9.154;2023-09-08T16:59:24;98042.69;;;29.25;51.87
18850;BME280;4989;48.772;9.154;2023-09-08T17:04:27;98045.22;;;29.15;52.69
18850;BME280;4989;48.772;9.154;2023-09-08T17:09:30;98042.03;;;28.90;52.39
18850;BME280;4989;48.772;9.154;2023-09-08T17:14:34;98040.66;;;28.84;52.77
18850;BME280;4989;48.772;9.154;2023-09-08T17:19:36;98051.28;;;28.85;53.23
18850;BME280;4989;48.772;9.154;2023-09-08T17:24:39;98056.53;;;29.02;51.74
18850;BME280;4989;48.772;9.154;2023-09-08T17:29:41;98045.56;;;28.91;52.12
18850;BME280;4989;48.772;9.154;2023-09-08T17:34:43;98050.28;;;28.75;53.57
18850;BME280;4989;48.772;9.154;2023-09-08T17:39:47;98052.03;;;28.65;54.42
18850;BME280;4989;48.772;9.154;2023-09-08T17:44:49;98046.56;;;28.59;53.76
18850;BME280;4989;48.772;9.154;2023-09-08T17:49:51;98055.16;;;28.27;55.52
18850;BME280;4989;48.772;9.154;2023-09-08T17:54:54;98054.19;;;28.24;55.25
18850;BME280;4989;48.772;9.154;2023-09-08T17:59:59;98057.81;;;28.33;56.89
18850;BME280;4989;48.772;9.154;2023-09-08T18:05:01;98060.63;;;28.33;57.96
18850;BME280;4989;48.772;9.154;2023-09-08T18:10:05;98056.84;;;28.30;57.87
18850;BME280;4989;48.772;9.154;2023-09-08T18:15:09;98063.88;;;28.23;57.76
18850;BME280;4989;48.772;9.154;2023-09-08T18:20:11;98069.03;;;28.19;57.06
18850;BME280;4989;48.772;9.154;2023-09-08T18:25:14;98074.88;;;28.08;56.78
18850;BME280;4989;48.772;9.154;2023-09-08T18:30:17;98085.38;;;28.15;54.61
18850;BME280;4989;48.772;9.154;2023-09-08T18:35:20;98089.50;;;27.88;54.83
18850;BME280;4989;48.772;9.154;2023-09-08T18:40:23;98074.19;;;27.35;56.40
18850;BME280;4989;48.772;9.154;2023-09-08T18:45:26;98077.00;;;27.49;57.34
18850;BME280;4989;48.772;9.154;2023-09-08T18:50:28;98084.06;;;27.50;56.85
18850;BME280;4989;48.772;9.154;2023-09-08T18:55:34;98085.13;;;27.47;57.65
18850;BME280;4989;48.772;9.154;2023-09-08T19:00:41;98084.16;;;27.44;57.12
18850;BME280;4989;48.772;9.154;2023-09-08T19:05:46;98090.66;;;27.20;57.85
18850;BME280;4989;48.772;9.154;2023-09-08T19:10:49;98090.31;;;27.43;58.06
18850;BME280;4989;48.772;9.154;2023-09-08T19:15:52;98089.41;;;27.34;57.23
18850;BME280;4989;48.772;9.154;2023-09-08T19:20:54;98091.69;;;27.36;56.93
18850;BME280;4989;48.772;9.154;2023-09-08T19:26:06;98097.59;;;27.46;58.63
18850;BME280;4989;48.772;9.154;2023-09-08T19:31:09;98093.97;;;27.05;57.88
18850;BME280;4989;48.772;9.154;2023-09-08T19:36:14;98093.31;;;26.80;62.67
18850;BME280;4989;48.772;9.154;2023-09-08T19:41:17;98103.38;;;27.21;61.54
18850;BME280;4989;48.772;9.154;2023-09-08T19:46:20;98100.28;;;27.38;59.21
18850;BME280;4989;48.772;9.154;2023-09-08T19:51:22;98091.09;;;26.60;59.87
18850;BME280;4989;48.772;9.154;2023-09-08T19:56:25;98091.66;;;26.71;61.54
18850;BME280;4989;48.772;9.154;2023-09-08T20:01:28;98102.09;;;27.03;59.35
18850;BME280;4989;48.772;9.154;2023-09-08T20:06:31;98100.03;;;26.34;61.29
18850;BME280;4989;48.772;9.154;2023-09-08T20:11:34;98103.28;;;26.76;63.17
18850;BME280;4989;48.772;9.154;2023-09-08T20:16:37;98095.78;;;27.03;61.43
18850;BME280;4989;48.772;9.154;2023-09-08T20:21:40;98094.78;;;27.00;60.15
18850;BME280;4989;48.772;9.154;2023-09-08T20:26:43;98090.13;;;26.89;62.61
18850;BME280;4989;48.772;9.154;2023-09-08T20:31:46;98089.22;;;27.00;61.07
18850;BME280;4989;48.772;9.154;2023-09-08T20:36:49;98088.19;;;26.84;60.37
18850;BME280;4989;48.772;9.154;2023-09-08T20:41:52;98098.66;;;26.21;63.13
18850;BME280;4989;48.772;9.154;2023-09-08T20:46:55;98084.22;;;26.61;62.66
18850;BME280;4989;48.772;9.154;2023-09-08T20:51:58;98098.00;;;26.72;61.26
18850;BME280;4989;48.772;9.154;2023-09-08T20:57:00;98090.00;;;26.44;63.35
18850;BME280;4989;48.772;9.154;2023-09-08T21:02:03;98090.09;;;26.76;63.75
18850;BME280;4989;48.772;9.154;2023-09-08T21:07:06;98085.00;;;25.99;63.86
18850;BME280;4989;48.772;9.154;2023-09-08T21:12:09;98091.19;;;26.11;64.45
18850;BME280;4989;48.772;9.154;2023-09-08T21:17:12;98093.63;;;26.39;64.88
18850;BME280;4989;48.772;9.154;2023-09-08T21:22:15;98085.59;;;26.54;62.06
18850;BME280;4989;48.772;9.154;2023-09-08T21:27:18;98077.03;;;26.46;62.43
18850;BME280;4989;48.772;9.154;2023-09-08T21:32:22;98080.75;;;25.68;64.94
18850;BME280;4989;48.772;9.154;2023-09-08T21:37:28;98090.13;;;26.14;64.30
18850;BME280;4989;48.772;9.154;2023-09-08T21:42:31;98086.97;;;25.79;64.87
18850;BME280;4989;48.772;9.154;2023-09-08T21:47:34;98073.63;;;25.72;65.85
18850;BME280;4989;48.772;9.154;2023-09-08T21:52:37;98078.22;;;25.45;66.48
18850;BME280;4989;48.772;9.154;2023-09-08T21:57:41;98079.50;;;24.78;69.24
18850;BME280;4989;48.772;9.154;2023-09-08T22:02:44;98089.88;;;24.25;73.80
18850;BME280;4989;48.772;9.154;2023-09-08T22:07:47;98085.22;;;24.91;72.15
18850;BME280;4989;48.772;9.154;2023-09-08T22:12:50;98076.63;;;25.25;70.59
18850;BME280;4989;48.772;9.154;2023-09-08T22:17:53;98087.47;;;25.78;67.62
18850;BME280;4989;48.772;9.154;2023-09-08T22:22:55;98080.47;;;25.96;65.89
18850;BME280;4989;48.772;9.154;2023-09-08T22:27:58;98078.72;;;25.68;67.57
18850;BME280;4989;48.772;9.154;2023-09-08T22:33:01;98081.22;;;25.47;68.04
18850;BME280;4989;48.772;9.154;2023-09-08T22:38:04;98083.38;;;24.70;72.17
18850;BME280;4989;48.772;9.154;2023-09-08T22:43:07;98082.09;;;24.71;74.06
18850;BME280;4989;48.772;9.154;2023-09-08T22:48:10;98078.59;;;25.00;70.66
18850;BME280;4989;48.772;9.154;2023-09-08T22:53:13;98068.22;;;24.65;72.15
18850;BME280;4989;48.772;9.154;2023-09-08T22:58:17;98063.66;;;24.67;73.02
18850;BME280;4989;48.772;9.154;2023-09-08T23:03:20;98066.72;;;25.00;71.96
18850;BME280;4989;48.772;9.154;2023-09-08T23:08:28;98064.63;;;24.76;71.84
18850;BME280;4989;48.772;9.154;2023-09-08T23:13:34;98065.66;;;25.03;72.09
18850;BME280;4989;48.772;9.154;2023-09-08T23:18:39;98054.94;;;25.67;68.73
18850;BME280;4989;48.772;9.154;2023-09-08T23:23:42;98052.69;;;25.66;67.80
18850;BME280;4989;48.772;9.154;2023-09-08T23:28:45;98052.59;;;24.09;75.17
18850;BME280;4989;48.772;9.154;2023-09-08T23:33:50;98051.38;;;24.52;73.79
18850;BME280;4989;48.772;9.154;2023-09-08T23:38:53;98050.66;;;24.40;73.79
18850;BME280;4989;48.772;9.154;2023-09-08T23:43:55;98041.84;;;24.36;75.51
18850;BME280;4989;48.772;9.154;2023-09-08T23:48:59;98041.41;;;24.67;73.37
18850;BME280;4989;48.772;9.154;2023-09-08T23:54:04;98044.19;;;24.20;75.36
18850;BME280;4989;48.772;9.154;2023-09-08T23:59:07;98043.00;;;24.57;73.14
